createdAt,value
2018-11-20T00:00:45.790Z,62.24
2018-11-20T00:03:38.908Z,62.42
2018-11-20T00:06:44.497Z,62.29
2018-11-20T00:09:30.096Z,61.62
2018-11-20T00:12:09.807Z,61.98
2018-11-20T00:14:56.127Z,62.11
2018-11-20T00:17:46.122Z,61.76
2018-11-20T00:20:35.565Z,61.63
2018-11-20T00:23:25.410Z,61.24
2018-11-20T00:26:04.846Z,61.37
2018-11-20T00:28:45.848Z,61.73
2018-11-20T00:31:25.891Z,61.37
2018-11-20T00:34:11.608Z,61.79
2018-11-20T00:37:01.390Z,61.78
2018-11-20T00:39:51.358Z,61.90
2018-11-20T00:42:29.124Z,62.03
2018-11-20T00:45:15.834Z,61.83
2018-11-20T00:48:01.601Z,61.61
2018-11-20T00:51:03.235Z,61.67
2018-11-20T00:53:50.399Z,61.53
2018-11-20T00:57:21.344Z,61.49
2018-11-20T01:00:14.674Z,61.24
2018-11-20T01:03:02.809Z,61.25
2018-11-20T01:05:54.203Z,61.05
2018-11-20T01:08:31.490Z,61.22
2018-11-20T01:11:28.092Z,61.36
2018-11-20T01:14:14.257Z,61.67
2018-11-20T01:17:03.321Z,61.14
2018-11-20T01:20:02.905Z,60.83
2018-11-20T01:23:02.818Z,60.50
2018-11-20T01:25:59.296Z,60.31
2018-11-20T01:28:45.040Z,60.76
2018-11-20T01:31:23.600Z,60.66
2018-11-20T01:34:13.765Z,60.98
2018-11-20T01:36:56.579Z,60.92
2018-11-20T01:39:42.556Z,60.78
2018-11-20T01:42:44.910Z,60.68
2018-11-20T01:45:30.919Z,60.62
2018-11-20T01:48:19.585Z,60.69
2018-11-20T01:51:19.054Z,60.71
2018-11-20T01:54:04.648Z,60.74
2018-11-20T01:57:00.653Z,60.58
2018-11-20T01:59:47.497Z,60.53
2018-11-20T02:02:43.955Z,60.31
2018-11-20T02:05:30.139Z,59.72
2018-11-20T02:08:33.293Z,60.05
2018-11-20T02:11:28.159Z,60.51
2018-11-20T02:14:26.722Z,60.62
2018-11-20T02:17:21.461Z,60.73
2018-11-20T02:20:14.471Z,60.54
2018-11-20T02:23:01.691Z,60.59
2018-11-20T02:26:07.511Z,60.37
2018-11-20T02:28:54.976Z,60.37
2018-11-20T02:31:43.229Z,60.42
2018-11-20T02:34:43.302Z,60.35
2018-11-20T02:37:31.448Z,60.31
2018-11-20T02:40:27.987Z,60.42
2018-11-20T02:43:19.679Z,60.61
2018-11-20T02:45:54.663Z,60.38
2018-11-20T02:48:50.821Z,59.97
2018-11-20T02:51:45.929Z,60.27
2018-11-20T02:54:31.771Z,60.68
2018-11-20T02:57:21.640Z,60.24
2018-11-20T03:00:07.304Z,60.21
2018-11-20T03:03:00.179Z,60.47
2018-11-20T03:05:56.144Z,60.48
2018-11-20T03:08:45.825Z,60.46
2018-11-20T03:11:42.272Z,60.96
2018-11-20T03:14:28.503Z,61.07
2018-11-20T03:17:12.968Z,60.48
2018-11-20T03:19:58.484Z,60.35
2018-11-20T03:22:44.235Z,60.23
2018-11-20T03:25:54.438Z,60.20
2018-11-20T03:28:38.090Z,60.50
2018-11-20T03:31:24.065Z,60.35
2018-11-20T03:34:21.524Z,60.64
2018-11-20T03:37:08.045Z,61.01
2018-11-20T03:39:53.589Z,61.07
2018-11-20T03:42:41.210Z,60.80
2018-11-20T03:45:17.875Z,60.79
2018-11-20T03:48:16.991Z,60.94
2018-11-20T03:51:00.314Z,61.02
2018-11-20T03:53:59.201Z,60.69
2018-11-20T03:56:48.949Z,60.56
2018-11-20T03:59:44.899Z,60.69
2018-11-20T04:02:40.879Z,60.65
2018-11-20T04:05:28.091Z,60.17
2018-11-20T04:08:19.726Z,60.11
2018-11-20T04:11:05.248Z,60.25
2018-11-20T04:13:55.134Z,59.81
2018-11-20T04:16:41.383Z,59.62
2018-11-20T04:19:28.534Z,60.01
2018-11-20T04:22:14.367Z,59.99
2018-11-20T04:24:59.971Z,60.10
2018-11-20T04:27:56.566Z,60.33
2018-11-20T04:31:07.103Z,60.24
2018-11-20T04:34:11.056Z,60.36
2018-11-20T04:37:10.196Z,60.24
2018-11-20T04:40:09.187Z,60.33
2018-11-20T04:42:56.400Z,60.09
2018-11-20T04:45:33.084Z,60.30
2018-11-20T04:48:20.224Z,60.42
2018-11-20T04:51:19.284Z,60.63
2018-11-20T04:54:04.993Z,60.62
2018-11-20T04:56:50.569Z,60.85
2018-11-20T04:59:36.049Z,60.38
2018-11-20T05:02:23.211Z,61.02
2018-11-20T05:05:16.363Z,60.74
2018-11-20T05:08:06.102Z,60.38
2018-11-20T05:10:41.842Z,60.36
2018-11-20T05:13:27.854Z,60.38
2018-11-20T05:16:15.054Z,60.12
2018-11-20T05:19:02.723Z,60.10
2018-11-20T05:22:01.925Z,60.14
2018-11-20T05:24:49.173Z,60.37
2018-11-20T05:27:38.836Z,60.70
2018-11-20T05:30:32.298Z,60.53
2018-11-20T05:33:19.739Z,60.45
2018-11-20T05:36:12.719Z,60.17
2018-11-20T05:39:03.028Z,60.26
2018-11-20T05:41:53.071Z,60.24
2018-11-20T05:44:38.795Z,60.13
2018-11-20T05:47:25.025Z,60.22
2018-11-20T05:50:14.770Z,60.46
2018-11-20T05:53:17.065Z,60.81
2018-11-20T05:56:06.392Z,61.09
2018-11-20T05:58:57.381Z,61.30
2018-11-20T06:01:50.355Z,60.72
2018-11-20T06:04:30.449Z,60.64
2018-11-20T06:07:29.768Z,60.98
2018-11-20T06:10:15.429Z,61.10
2018-11-20T06:13:18.210Z,60.91
2018-11-20T06:16:05.680Z,60.90
2018-11-20T06:19:04.743Z,61.37
2018-11-20T06:21:50.475Z,60.07
2018-11-20T06:24:36.271Z,60.00
2018-11-20T06:27:22.100Z,59.95
2018-11-20T06:30:09.293Z,60.34
2018-11-20T06:32:55.568Z,60.40
2018-11-20T06:35:34.079Z,60.53
2018-11-20T06:38:19.940Z,60.82
2018-11-20T06:41:06.023Z,60.75
2018-11-20T06:43:53.604Z,61.12
2018-11-20T06:46:52.863Z,61.22
2018-11-20T06:49:38.846Z,60.94
2018-11-20T06:52:38.376Z,60.83
2018-11-20T06:55:20.730Z,61.04
2018-11-20T06:58:23.007Z,60.89
2018-11-20T07:01:02.114Z,61.09
2018-11-20T07:03:52.039Z,60.84
2018-11-20T07:06:56.619Z,60.76
2018-11-20T07:09:42.769Z,60.72
2018-11-20T07:12:28.686Z,61.08
2018-11-20T07:15:24.732Z,61.07
2018-11-20T07:18:11.549Z,61.14
2018-11-20T07:21:17.172Z,61.19
2018-11-20T07:24:07.391Z,61.03
2018-11-20T07:27:01.846Z,61.07
2018-11-20T07:29:47.443Z,61.02
2018-11-20T07:32:50.023Z,61.27
2018-11-20T07:35:39.333Z,61.00
2018-11-20T07:38:41.970Z,61.24
2018-11-20T07:41:27.730Z,61.04
2018-11-20T07:44:03.600Z,60.87
2018-11-20T07:46:49.108Z,60.89
2018-11-20T07:49:35.805Z,60.71
2018-11-20T07:52:25.959Z,60.75
2018-11-20T07:55:28.290Z,61.08
2018-11-20T07:58:14.489Z,61.04
2018-11-20T08:01:10.315Z,60.89
2018-11-20T08:03:49.854Z,61.00
2018-11-20T08:06:35.899Z,60.54
2018-11-20T08:09:28.176Z,60.50
2018-11-20T08:12:03.082Z,60.61
2018-11-20T08:14:49.103Z,60.82
2018-11-20T08:17:35.192Z,61.35
2018-11-20T08:20:23.031Z,61.02
2018-11-20T08:23:08.839Z,61.13
2018-11-20T08:26:02.488Z,61.02
2018-11-20T08:28:49.555Z,61.02
2018-11-20T08:31:39.510Z,60.98
2018-11-20T08:34:26.821Z,60.74
2018-11-20T08:37:10.253Z,60.51
2018-11-20T08:40:06.439Z,60.54
2018-11-20T08:42:56.216Z,60.46
2018-11-20T08:45:49.611Z,60.65
2018-11-20T08:48:35.956Z,61.09
2018-11-20T08:51:37.995Z,60.39
2018-11-20T08:54:17.395Z,60.72
2018-11-20T08:57:00.753Z,60.81
2018-11-20T08:59:55.639Z,60.55
2018-11-20T09:02:54.873Z,60.72
2018-11-20T09:05:40.795Z,60.71
2018-11-20T09:08:27.296Z,60.46
2018-11-20T09:11:14.786Z,60.64
2018-11-20T09:14:01.984Z,60.71
2018-11-20T09:16:43.675Z,60.71
2018-11-20T09:19:31.009Z,60.10
2018-11-20T09:22:21.208Z,60.13
2018-11-20T09:25:06.879Z,59.97
2018-11-20T09:28:06.005Z,59.81
2018-11-20T09:30:58.548Z,59.98
2018-11-20T09:33:48.311Z,59.78
2018-11-20T09:36:35.552Z,59.59
2018-11-20T09:39:25.444Z,59.55
2018-11-20T09:42:21.924Z,59.78
2018-11-20T09:45:30.059Z,59.95
2018-11-20T09:48:35.530Z,59.67
2018-11-20T09:51:38.090Z,59.66
2018-11-20T09:54:25.926Z,59.67
2018-11-20T09:57:15.884Z,59.77
2018-11-20T10:00:01.500Z,59.50
2018-11-20T10:03:00.577Z,59.45
2018-11-20T10:05:47.904Z,59.45
2018-11-20T10:08:35.566Z,59.79
2018-11-20T10:11:21.517Z,59.79
2018-11-20T10:14:08.798Z,60.03
2018-11-20T10:16:54.757Z,59.61
2018-11-20T10:19:39.354Z,59.71
2018-11-20T10:22:32.910Z,59.49
2018-11-20T10:25:23.485Z,59.64
2018-11-20T10:28:16.303Z,59.58
2018-11-20T10:31:03.447Z,59.52
2018-11-20T10:33:49.592Z,59.31
2018-11-20T10:36:39.537Z,59.40
2018-11-20T10:39:31.829Z,59.08
2018-11-20T10:42:17.789Z,59.15
2018-11-20T10:45:05.031Z,59.35
2018-11-20T10:47:51.582Z,59.70
2018-11-20T10:50:37.621Z,59.70
2018-11-20T10:53:22.939Z,59.52
2018-11-20T10:56:16.332Z,59.52
2018-11-20T10:59:19.269Z,59.65
2018-11-20T11:02:05.285Z,59.16
2018-11-20T11:04:51.791Z,59.16
2018-11-20T11:07:48.362Z,59.16
2018-11-20T11:10:36.626Z,59.15
2018-11-20T11:13:23.130Z,58.99
2018-11-20T11:16:03.356Z,59.18
2018-11-20T11:19:08.978Z,59.31
2018-11-20T11:21:58.779Z,59.56
2018-11-20T11:24:53.353Z,59.88
2018-11-20T11:27:39.676Z,59.68
2018-11-20T11:30:28.196Z,59.43
2018-11-20T11:33:10.812Z,59.43
2018-11-20T11:35:56.902Z,59.51
2018-11-20T11:38:46.877Z,59.28
2018-11-20T11:41:33.864Z,59.33
2018-11-20T11:44:20.922Z,59.33
2018-11-20T11:47:07.053Z,59.19
2018-11-20T11:50:00.909Z,59.16
2018-11-20T11:52:39.399Z,59.02
2018-11-20T11:55:24.187Z,59.02
2018-11-20T11:58:11.126Z,58.94
2018-11-20T12:00:59.588Z,58.85
2018-11-20T12:03:37.920Z,59.40
2018-11-20T12:06:25.882Z,59.24
2018-11-20T12:09:11.960Z,59.24
2018-11-20T12:11:58.123Z,59.41
2018-11-20T12:16:28.430Z,59.17
2018-11-20T12:19:21.125Z,59.17
2018-11-20T12:22:17.170Z,58.45
2018-11-20T12:25:19.336Z,58.31
2018-11-20T12:28:16.784Z,58.31
2018-11-20T12:30:53.649Z,58.82
2018-11-20T12:33:38.386Z,59.16
2018-11-20T12:36:22.516Z,59.36
2018-11-20T12:39:08.119Z,58.62
2018-11-20T12:41:53.997Z,58.62
2018-11-20T12:44:41.307Z,59.23
2018-11-20T12:47:31.645Z,59.43
2018-11-20T12:50:30.900Z,59.43
2018-11-20T12:53:16.540Z,58.94
2018-11-20T12:55:58.779Z,59.26
2018-11-20T12:58:44.522Z,59.56
2018-11-20T13:01:29.986Z,59.56
2018-11-20T13:04:25.565Z,58.97
2018-11-20T13:07:22.944Z,59.05
2018-11-20T13:10:08.114Z,59.05
2018-11-20T13:13:00.896Z,59.05
2018-11-20T13:15:47.110Z,60.14
2018-11-20T13:18:46.210Z,60.14
2018-11-20T13:21:51.414Z,60.45
2018-11-20T13:24:29.561Z,60.45
2018-11-20T13:27:09.863Z,60.02
2018-11-20T13:30:00.221Z,60.09
2018-11-20T13:32:47.946Z,59.34
2018-11-20T13:35:31.306Z,59.77
2018-11-20T13:38:16.674Z,59.77
2018-11-20T13:41:44.771Z,60.07
2018-11-20T13:44:39.598Z,59.90
2018-11-20T13:47:19.562Z,59.96
2018-11-20T13:50:09.793Z,60.05
2018-11-20T13:52:59.658Z,60.37
2018-11-20T13:55:46.934Z,60.37
2018-11-20T13:58:32.789Z,60.53
2018-11-20T14:01:09.781Z,60.53
2018-11-20T14:03:53.653Z,60.48
2018-11-20T14:06:49.557Z,60.48
2018-11-20T14:09:48.934Z,60.16
2018-11-20T14:12:34.926Z,59.88
2018-11-20T14:15:37.022Z,59.88
2018-11-20T14:18:23.379Z,60.33
2018-11-20T14:21:08.991Z,60.37
2018-11-20T14:24:03.164Z,60.08
2018-11-20T14:26:48.806Z,60.25
2018-11-20T14:29:37.022Z,60.25
2018-11-20T14:32:42.504Z,60.63
2018-11-20T14:35:35.411Z,60.98
2018-11-20T14:38:31.749Z,61.02
2018-11-20T14:41:17.508Z,61.55
2018-11-20T14:44:07.504Z,61.26
2018-11-20T14:46:53.211Z,61.26
2018-11-20T14:49:49.423Z,61.76
2018-11-20T14:52:45.556Z,61.76
2018-11-20T14:55:27.456Z,61.51
2018-11-20T14:58:32.926Z,61.51
2018-11-20T15:01:23.057Z,62.14
2018-11-20T15:04:22.247Z,62.14
2018-11-20T15:07:17.361Z,62.25
2018-11-20T15:10:04.546Z,63.32
2018-11-20T15:13:00.610Z,63.69
2018-11-20T15:15:45.169Z,63.75
2018-11-20T15:18:35.156Z,63.78
2018-11-20T15:21:22.466Z,64.32
2018-11-20T15:24:08.088Z,64.24
2018-11-20T15:27:13.253Z,64.22
2018-11-20T15:30:01.176Z,64.22
2018-11-20T15:32:48.469Z,64.53
2018-11-20T15:35:35.181Z,64.53
2018-11-20T15:38:19.758Z,65.22
2018-11-20T15:41:15.908Z,65.22
2018-11-20T15:43:51.828Z,65.21
2018-11-20T15:46:39.247Z,65.21
2018-11-20T15:49:25.104Z,65.10
2018-11-20T15:52:10.726Z,65.10
2018-11-20T15:54:56.304Z,65.35
2018-11-20T15:57:43.981Z,65.35
2018-11-20T16:00:29.533Z,65.41
2018-11-20T16:03:15.620Z,65.65
2018-11-20T16:06:04.256Z,65.86
2018-11-20T16:08:49.949Z,65.83
2018-11-20T16:11:37.579Z,65.83
2018-11-20T16:14:40.007Z,65.86
2018-11-20T16:17:27.192Z,65.72
2018-11-20T16:20:13.084Z,66.36
2018-11-20T16:22:58.571Z,66.36
2018-11-20T16:25:52.670Z,66.24
2018-11-20T16:28:38.026Z,66.36
2018-11-20T16:31:25.531Z,66.36
2018-11-20T16:34:15.844Z,67.08
2018-11-20T16:37:03.199Z,67.08
2018-11-20T16:39:49.454Z,66.98
2018-11-20T16:42:35.560Z,66.97
2018-11-20T16:45:21.359Z,66.97
2018-11-20T16:48:04.252Z,67.43
2018-11-20T16:50:54.457Z,67.57
2018-11-20T16:53:44.193Z,67.95
2018-11-20T16:56:40.781Z,67.95
2018-11-20T16:59:26.653Z,68.63
2018-11-20T17:02:16.764Z,69.50
2018-11-20T17:05:09.976Z,69.50
2018-11-20T17:07:56.283Z,69.56
2018-11-20T17:10:37.486Z,70.13
2018-11-20T17:13:25.731Z,70.13
2018-11-20T17:16:12.018Z,70.05
2018-11-20T17:19:00.343Z,69.88
2018-11-20T17:21:46.282Z,69.83
2018-11-20T17:24:33.924Z,69.91
2018-11-20T17:27:33.392Z,70.06
2018-11-20T17:30:35.692Z,70.11
2018-11-20T17:33:22.974Z,70.07
2018-11-20T17:36:09.247Z,70.07
2018-11-20T17:38:54.944Z,70.09
2018-11-20T17:41:39.128Z,70.12
2018-11-20T17:44:18.140Z,69.77
2018-11-20T17:47:08.054Z,69.89
2018-11-20T17:50:07.336Z,70.20
2018-11-20T17:52:56.800Z,70.20
2018-11-20T17:55:42.778Z,70.35
2018-11-20T17:58:36.105Z,70.35
2018-11-20T18:01:28.346Z,70.53
2018-11-20T18:04:15.090Z,70.25
2018-11-20T18:07:00.691Z,70.34
2018-11-20T18:09:46.230Z,70.20
2018-11-20T18:12:39.635Z,69.92
2018-11-20T18:15:36.221Z,69.98
2018-11-20T18:18:25.272Z,70.42
2018-11-20T18:21:24.084Z,70.43
2018-11-20T18:24:09.871Z,70.21
2018-11-20T18:26:57.054Z,70.16
2018-11-20T18:29:46.730Z,70.37
2018-11-20T18:32:33.930Z,70.37
2018-11-20T18:35:23.984Z,70.24
2018-11-20T18:38:23.143Z,70.05
2018-11-20T18:41:05.290Z,69.94
2018-11-20T18:43:54.996Z,70.01
2018-11-20T18:46:41.106Z,70.01
2018-11-20T18:49:54.020Z,70.38
2018-11-20T18:52:43.315Z,70.38
2018-11-20T18:55:29.464Z,70.24
2018-11-20T18:58:15.291Z,69.88
2018-11-20T19:01:07.358Z,70.51
2018-11-20T19:03:57.286Z,70.51
2018-11-20T19:06:59.150Z,70.32
2018-11-20T19:09:48.247Z,70.32
2018-11-20T19:12:36.887Z,70.47
2018-11-20T19:15:26.272Z,70.47
2018-11-20T19:18:19.464Z,70.52
2018-11-20T19:21:01.990Z,70.46
2018-11-20T19:24:04.467Z,70.57
2018-11-20T19:26:49.902Z,70.38
2018-11-20T19:29:43.198Z,70.58
2018-11-20T19:32:30.643Z,70.90
2018-11-20T19:35:35.906Z,70.77
2018-11-20T19:38:41.313Z,70.77
2018-11-20T19:41:42.754Z,70.82
2018-11-20T19:44:32.426Z,71.03
2018-11-20T19:47:22.999Z,70.64
2018-11-20T19:50:08.666Z,70.64
2018-11-20T19:52:52.413Z,70.66
2018-11-20T19:55:33.356Z,70.70
2018-11-20T19:58:29.873Z,70.38
2018-11-20T20:01:19.792Z,70.38
2018-11-20T20:04:07.151Z,70.67
2018-11-20T20:06:52.723Z,70.89
2018-11-20T20:09:38.489Z,70.84
2018-11-20T20:12:15.931Z,70.10
2018-11-20T20:15:01.561Z,70.10
2018-11-20T20:17:54.512Z,70.42
2018-11-20T20:20:53.529Z,70.42
2018-11-20T20:23:52.458Z,70.47
2018-11-20T20:26:42.401Z,70.47
2018-11-20T20:29:28.502Z,70.58
2018-11-20T20:32:24.783Z,70.66
2018-11-20T20:35:10.218Z,70.66
2018-11-20T20:37:56.087Z,70.27
2018-11-20T20:40:39.719Z,70.14
2018-11-20T20:43:41.957Z,70.15
2018-11-20T20:46:37.963Z,70.09
2018-11-20T20:49:27.424Z,70.33
2018-11-20T20:52:17.789Z,70.57
2018-11-20T20:55:00.980Z,69.90
2018-11-20T20:57:46.767Z,70.05
2018-11-20T21:00:32.403Z,70.05
2018-11-20T21:03:31.708Z,69.78
2018-11-20T21:06:17.576Z,70.21
2018-11-20T21:09:20.059Z,69.98
2018-11-20T21:12:15.876Z,69.96
2018-11-20T21:15:20.887Z,69.69
2018-11-20T21:18:02.313Z,69.69
2018-11-20T21:20:47.893Z,69.92
2018-11-20T21:23:47.097Z,69.83
2018-11-20T21:26:43.281Z,70.17
2018-11-20T21:29:31.660Z,70.17
2018-11-20T21:32:17.319Z,70.62
2018-11-20T21:35:04.809Z,70.63
2018-11-20T21:37:50.490Z,70.46
2018-11-20T21:40:36.387Z,70.36
2018-11-20T21:43:26.021Z,70.78
2018-11-20T21:46:16.179Z,70.79
2018-11-20T21:49:01.860Z,71.12
2018-11-20T21:51:42.597Z,71.34
2018-11-20T21:54:28.859Z,71.84
2018-11-20T21:57:19.059Z,72.08
2018-11-20T22:00:11.518Z,71.71
2018-11-20T22:03:02.031Z,71.84
2018-11-20T22:05:57.899Z,71.62
2018-11-20T22:08:47.966Z,71.62
2018-11-20T22:11:33.511Z,71.72
2018-11-20T22:14:19.378Z,71.77
2018-11-20T22:17:07.824Z,71.96
2018-11-20T22:19:53.432Z,72.33
2018-11-20T22:22:58.566Z,72.82
2018-11-20T22:25:44.465Z,73.23
2018-11-20T22:28:33.796Z,73.57
2018-11-20T22:31:24.312Z,73.91
2018-11-20T22:34:26.603Z,73.41
2018-11-20T22:37:12.697Z,73.69
2018-11-20T22:40:07.311Z,73.32
2018-11-20T22:42:52.843Z,73.85
2018-11-20T22:45:38.241Z,73.79
2018-11-20T22:48:24.011Z,74.41
2018-11-20T22:51:11.454Z,74.99
2018-11-20T22:53:48.020Z,75.42
2018-11-20T22:56:31.771Z,74.84
2018-11-20T22:59:30.955Z,74.62
2018-11-20T23:02:18.270Z,74.42
2018-11-20T23:05:03.862Z,74.30
2018-11-20T23:07:44.438Z,74.14
2018-11-20T23:10:13.929Z,73.99
2018-11-20T23:12:43.152Z,73.80
2018-11-20T23:15:12.840Z,74.35
2018-11-20T23:17:40.922Z,74.04
2018-11-20T23:20:09.915Z,73.84
2018-11-20T23:22:38.296Z,73.75
2018-11-20T23:25:07.693Z,73.76
2018-11-20T23:27:36.184Z,73.48
2018-11-20T23:30:05.467Z,73.86
2018-11-20T23:32:33.884Z,74.77
2018-11-20T23:35:01.950Z,74.34
2018-11-20T23:37:30.073Z,74.59
2018-11-20T23:39:58.147Z,74.28
2018-11-20T23:42:26.248Z,74.14
2018-11-20T23:44:54.273Z,74.59
2018-11-20T23:47:22.363Z,74.31
2018-11-20T23:49:50.569Z,74.44
2018-11-20T23:52:27.169Z,74.73
2018-11-20T23:54:56.218Z,74.50
2018-11-20T23:57:24.897Z,74.40
2018-11-20T23:59:54.376Z,74.56
